createdAt,value
2022-11-23T00:00:48.699Z,21.55
2022-11-23T00:03:17.212Z,21.42
2022-11-23T00:05:49.637Z,24.15
2022-11-23T00:08:19.935Z,22.30
2022-11-23T00:10:51.600Z,22.88
2022-11-23T00:13:24.163Z,22.40
2022-11-23T00:15:52.821Z,23.45
2022-11-23T00:18:23.334Z,24.67
2022-11-23T00:20:52.657Z,22.97
2022-11-23T00:23:20.870Z,22.30
2022-11-23T00:25:48.726Z,21.30
2022-11-23T00:28:16.828Z,22.25
2022-11-23T00:30:50.593Z,22.90
2022-11-23T00:33:18.562Z,20.60
2022-11-23T00:35:46.333Z,20.00
2022-11-23T00:38:14.778Z,18.60
2022-11-23T00:40:44.686Z,19.95
2022-11-23T00:45:40.269Z,21.45
2022-11-23T00:48:08.910Z,19.77
2022-11-23T00:50:36.665Z,20.52
2022-11-23T00:53:05.434Z,19.90
2022-11-23T00:55:33.818Z,20.63
2022-11-23T00:58:03.344Z,17.92
2022-11-23T01:00:40.025Z,20.50
2022-11-23T01:03:11.075Z,21.55
2022-11-23T01:05:45.001Z,19.63
2022-11-23T01:08:14.688Z,18.85
2022-11-23T01:10:43.002Z,17.27
2022-11-23T01:13:11.363Z,17.40
2022-11-23T01:15:51.670Z,17.10
2022-11-23T01:18:24.926Z,17.02
2022-11-23T01:20:53.705Z,17.10
2022-11-23T01:23:22.168Z,15.45
2022-11-23T01:25:55.621Z,14.95
2022-11-23T01:28:27.251Z,15.25
2022-11-23T01:30:57.079Z,15.75
2022-11-23T01:33:24.741Z,15.73
2022-11-23T01:35:52.797Z,15.52
2022-11-23T01:38:21.786Z,14.93
2022-11-23T01:40:50.897Z,15.63
2022-11-23T01:43:19.532Z,14.55
2022-11-23T01:45:53.230Z,15.05
2022-11-23T01:48:27.332Z,14.02
2022-11-23T01:50:59.477Z,14.57
2022-11-23T01:53:30.787Z,13.35
2022-11-23T01:56:05.042Z,13.68
2022-11-23T01:58:38.625Z,13.68
2022-11-23T02:01:08.129Z,12.80
2022-11-23T02:03:37.569Z,13.52
2022-11-23T02:06:26.182Z,12.95
2022-11-23T02:09:00.147Z,12.82
2022-11-23T02:11:30.054Z,12.02
2022-11-23T02:14:00.391Z,11.75
2022-11-23T02:16:31.930Z,11.73
2022-11-23T02:19:01.188Z,12.10
2022-11-23T02:21:33.077Z,12.93
2022-11-23T02:24:02.120Z,11.98
2022-11-23T02:26:34.562Z,12.52
2022-11-23T02:29:26.212Z,11.15
2022-11-23T02:31:55.879Z,11.13
2022-11-23T02:34:34.701Z,11.82
2022-11-23T02:37:05.095Z,11.10
2022-11-23T02:39:46.885Z,11.75
2022-11-23T02:42:16.366Z,11.38
2022-11-23T02:45:18.221Z,10.73
2022-11-23T02:47:46.708Z,11.00
2022-11-23T02:50:21.254Z,11.93
2022-11-23T02:52:50.803Z,11.50
2022-11-23T02:55:26.065Z,10.88
2022-11-23T02:58:19.512Z,10.98
2022-11-23T03:00:50.608Z,10.98
2022-11-23T03:03:21.192Z,11.02
2022-11-23T03:05:48.739Z,11.55
2022-11-23T03:08:19.669Z,10.70
2022-11-23T03:10:49.183Z,11.10
2022-11-23T03:13:24.489Z,11.65
2022-11-23T03:21:15.637Z,11.63
2022-11-23T03:23:43.592Z,12.80
2022-11-23T03:26:17.408Z,11.27
2022-11-23T03:28:55.267Z,11.95
2022-11-23T03:31:28.683Z,12.35
2022-11-23T03:33:56.810Z,12.18
2022-11-23T03:36:26.426Z,11.15
2022-11-23T03:38:56.390Z,11.77
2022-11-23T03:41:38.927Z,12.65
2022-11-23T03:44:10.867Z,13.98
2022-11-23T03:46:38.753Z,11.68
2022-11-23T03:49:06.544Z,14.18
2022-11-23T03:51:35.003Z,15.32
2022-11-23T03:54:10.595Z,14.60
2022-11-23T03:56:39.452Z,14.13
2022-11-23T03:59:07.491Z,13.90
2022-11-23T04:01:35.247Z,14.05
2022-11-23T04:04:07.445Z,14.52
2022-11-23T04:06:47.008Z,13.15
2022-11-23T04:09:22.566Z,13.18
2022-11-23T04:12:11.409Z,13.80
2022-11-23T04:14:41.607Z,13.60
2022-11-23T04:17:10.297Z,11.50
2022-11-23T04:19:41.959Z,12.93
2022-11-23T04:22:10.527Z,13.02
2022-11-23T04:24:43.620Z,12.80
2022-11-23T04:27:12.175Z,12.45
2022-11-23T04:29:40.907Z,12.45
2022-11-23T04:32:09.061Z,11.27
2022-11-23T04:34:38.310Z,12.25
2022-11-23T04:37:13.008Z,11.88
2022-11-23T04:39:45.274Z,11.85
2022-11-23T04:42:31.061Z,12.00
2022-11-23T04:45:04.582Z,12.07
2022-11-23T04:47:34.223Z,11.45
2022-11-23T04:50:08.163Z,11.20
2022-11-23T04:52:39.431Z,10.52
2022-11-23T04:55:13.944Z,11.25
2022-11-23T04:57:50.396Z,10.47
2022-11-23T05:02:47.605Z,8.93
2022-11-23T05:05:24.030Z,7.97
2022-11-23T05:07:55.600Z,7.78
2022-11-23T05:10:27.956Z,8.45
2022-11-23T05:13:00.123Z,9.35
2022-11-23T05:15:30.459Z,9.73
2022-11-23T05:18:06.919Z,9.05
2022-11-23T05:20:36.600Z,9.45
2022-11-23T05:23:05.417Z,10.93
2022-11-23T05:25:35.433Z,9.80
2022-11-23T05:28:30.099Z,9.77
2022-11-23T05:30:58.013Z,9.00
2022-11-23T05:33:26.810Z,9.77
2022-11-23T05:36:10.049Z,6.63
2022-11-23T05:38:45.005Z,6.30
2022-11-23T05:41:24.375Z,7.20
2022-11-23T05:43:57.568Z,5.78
2022-11-23T05:46:29.463Z,5.20
2022-11-23T05:49:08.377Z,6.25
2022-11-23T05:51:42.894Z,6.95
2022-11-23T05:54:13.271Z,6.57
2022-11-23T05:56:49.001Z,6.53
2022-11-23T05:59:21.833Z,6.43
2022-11-23T06:01:56.995Z,5.85
2022-11-23T06:04:48.079Z,6.53
2022-11-23T06:07:22.589Z,5.72
2022-11-23T06:10:04.719Z,5.00
2022-11-23T06:12:34.746Z,5.10
2022-11-23T06:15:08.983Z,5.35
2022-11-23T06:17:39.248Z,5.40
2022-11-23T06:20:13.503Z,5.13
2022-11-23T06:22:56.636Z,4.88
2022-11-23T06:25:29.737Z,4.53
2022-11-23T06:28:10.803Z,5.38
2022-11-23T06:34:36.657Z,4.90
2022-11-23T06:37:32.065Z,6.07
2022-11-23T06:40:56.463Z,4.53
2022-11-23T06:43:58.959Z,4.40
2022-11-23T06:46:48.129Z,4.28
2022-11-23T06:49:53.064Z,4.53
2022-11-23T06:59:17.670Z,4.15
2022-11-23T07:21:12.861Z,4.18
2022-11-23T07:38:58.306Z,4.13
2022-11-23T07:41:31.974Z,3.47
2022-11-23T07:47:05.726Z,4.05
2022-11-23T07:49:34.998Z,4.00
2022-11-23T07:54:52.384Z,4.72
2022-11-23T07:57:22.368Z,3.15
2022-11-23T07:59:52.915Z,3.40
2022-11-23T08:02:22.222Z,3.97
2022-11-23T08:04:55.325Z,3.75
2022-11-23T08:07:54.097Z,3.85
2022-11-23T08:10:22.183Z,3.83
2022-11-23T08:19:36.586Z,4.47
2022-11-23T08:22:06.054Z,5.10
2022-11-23T08:24:34.357Z,4.32
2022-11-23T08:27:02.703Z,7.22
2022-11-23T08:29:31.119Z,6.93
2022-11-23T08:31:58.784Z,6.57
2022-11-23T08:34:26.696Z,6.25
2022-11-23T08:36:57.658Z,6.22
2022-11-23T08:39:25.745Z,7.45
2022-11-23T08:41:54.743Z,6.07
2022-11-23T08:44:22.586Z,6.75
2022-11-23T08:46:51.720Z,6.72
2022-11-23T08:49:19.993Z,7.03
2022-11-23T08:54:19.914Z,6.60
2022-11-23T08:56:48.008Z,8.68
2022-11-23T08:59:17.571Z,6.85
2022-11-23T09:01:46.225Z,6.38
2022-11-23T09:04:20.371Z,6.18
2022-11-23T09:07:00.194Z,6.70
2022-11-23T09:09:28.133Z,7.05
2022-11-23T09:11:55.674Z,6.75
2022-11-23T09:14:23.865Z,3.63
2022-11-23T09:19:19.627Z,4.10
2022-11-23T09:21:47.753Z,3.83
2022-11-23T09:24:15.888Z,2.40
2022-11-23T09:29:13.770Z,1.90
2022-11-23T09:31:41.312Z,17.98
2022-11-23T09:34:13.979Z,2.17
2022-11-23T09:36:41.986Z,1.25
2022-11-23T09:39:13.728Z,1.60
2022-11-23T09:42:06.811Z,2.55
2022-11-23T09:44:55.574Z,1.50
2022-11-23T09:47:51.902Z,1.10
2022-11-23T09:50:39.957Z,1.15
2022-11-23T09:53:18.258Z,5.13
2022-11-23T10:14:28.740Z,1.50
2022-11-23T10:17:29.789Z,1.65
2022-11-23T10:20:29.734Z,1.20
2022-11-23T10:22:59.021Z,1.50
2022-11-23T10:35:13.748Z,1.30
2022-11-23T10:37:53.917Z,1.58
2022-11-23T10:40:38.395Z,1.30
2022-11-23T10:43:48.706Z,1.52
2022-11-23T10:49:24.671Z,1.92
2022-11-23T10:52:27.940Z,1.67
2022-11-23T10:57:53.856Z,1.30
2022-11-23T11:03:23.694Z,1.50
2022-11-23T11:06:09.661Z,1.92
2022-11-23T11:08:56.853Z,1.80
2022-11-23T11:11:27.838Z,1.67
2022-11-23T11:14:31.360Z,1.75
2022-11-23T11:17:02.335Z,2.10
2022-11-23T11:19:38.035Z,1.70
2022-11-23T11:22:28.048Z,1.90
2022-11-23T11:27:54.513Z,3.00
2022-11-23T11:30:44.695Z,1.48
2022-11-23T12:00:15.968Z,1.38
2022-11-23T12:09:48.401Z,1.60
2022-11-23T12:16:29.090Z,1.88
2022-11-23T12:19:27.800Z,2.00
2022-11-23T12:22:14.065Z,2.67
2022-11-23T12:38:08.446Z,1.95
2022-11-23T12:48:56.246Z,1.90
2022-11-23T12:51:40.014Z,1.75
2022-11-23T12:54:09.805Z,2.33
2022-11-23T12:57:05.007Z,2.53
2022-11-23T12:59:47.134Z,2.65
2022-11-23T13:02:55.746Z,1.20
2022-11-23T13:06:06.521Z,0.60
2022-11-23T13:08:54.878Z,1.13
2022-11-23T13:11:46.173Z,1.08
2022-11-23T13:14:32.963Z,2.08
2022-11-23T13:17:20.932Z,1.73
2022-11-23T13:20:28.038Z,1.10
2022-11-23T13:22:58.830Z,1.60
2022-11-23T13:25:36.907Z,1.17
2022-11-23T13:31:53.804Z,1.02
2022-11-23T13:34:44.770Z,1.63
2022-11-23T13:37:16.995Z,1.17
2022-11-23T13:40:04.079Z,1.25
2022-11-23T13:42:33.977Z,1.73
2022-11-23T13:45:23.939Z,1.20
2022-11-23T13:48:41.328Z,0.90
2022-11-23T13:51:06.830Z,0.90
2022-11-23T13:53:45.444Z,1.48
2022-11-23T13:56:37.462Z,1.67
2022-11-23T13:59:23.908Z,1.45
2022-11-23T14:10:49.772Z,0.75
2022-11-23T14:13:27.860Z,1.08
2022-11-23T14:16:02.135Z,0.90
2022-11-23T14:19:04.159Z,0.60
2022-11-23T14:21:46.989Z,0.70
2022-11-23T14:24:39.488Z,0.60
2022-11-23T14:30:36.778Z,0.70
2022-11-23T14:33:41.191Z,0.60
2022-11-23T14:36:18.482Z,0.40
2022-11-23T14:39:26.330Z,0.82
2022-11-23T14:42:00.292Z,0.60
2022-11-23T14:44:35.619Z,0.93
2022-11-23T14:47:15.178Z,0.60
2022-11-23T14:49:57.094Z,0.60
2022-11-23T14:52:26.345Z,0.52
2022-11-23T14:54:58.512Z,0.60
2022-11-23T14:57:30.246Z,0.60
2022-11-23T15:00:11.501Z,0.90
2022-11-23T15:02:43.637Z,0.73
2022-11-23T15:05:28.815Z,0.80
2022-11-23T15:08:03.440Z,0.63
2022-11-23T15:10:40.919Z,0.50
2022-11-23T15:13:26.353Z,0.80
2022-11-23T15:15:57.051Z,0.98
2022-11-23T15:18:30.325Z,0.60
2022-11-23T15:21:02.296Z,0.82
2022-11-23T15:23:48.605Z,0.70
2022-11-23T15:26:48.159Z,0.70
2022-11-23T15:29:37.662Z,0.98
2022-11-23T15:32:33.818Z,0.93
2022-11-23T15:35:07.225Z,1.20
2022-11-23T15:37:47.695Z,1.33
2022-11-23T15:40:19.137Z,0.90
2022-11-23T15:42:50.246Z,1.15
2022-11-23T15:45:43.995Z,1.10
2022-11-23T15:48:30.095Z,1.15
2022-11-23T15:51:06.361Z,1.17
2022-11-23T15:53:54.137Z,1.13
2022-11-23T15:56:23.830Z,1.75
2022-11-23T15:58:55.420Z,1.02
2022-11-23T16:01:31.011Z,1.55
2022-11-23T16:04:36.180Z,1.40
2022-11-23T16:07:33.294Z,1.70
2022-11-23T16:10:33.763Z,1.75
2022-11-23T16:13:10.840Z,1.65
2022-11-23T16:15:42.154Z,2.10
2022-11-23T16:21:28.685Z,2.03
2022-11-23T16:23:59.315Z,2.30
2022-11-23T16:26:33.866Z,2.47
2022-11-23T16:29:05.355Z,3.13
2022-11-23T16:34:55.535Z,2.45
2022-11-23T16:37:30.056Z,2.20
2022-11-23T16:40:01.138Z,2.45
2022-11-23T16:42:49.954Z,2.88
2022-11-23T16:45:34.502Z,1.65
2022-11-23T16:48:27.432Z,1.98
2022-11-23T16:51:32.148Z,2.05
2022-11-23T17:07:12.951Z,2.10
2022-11-23T17:09:45.839Z,2.33
2022-11-23T17:12:19.139Z,2.63
2022-11-23T17:17:37.273Z,2.08
2022-11-23T17:20:06.892Z,2.08
2022-11-23T17:22:38.056Z,2.67
2022-11-23T17:25:14.702Z,1.73
2022-11-23T17:27:46.972Z,2.40
2022-11-23T17:30:22.099Z,2.33
2022-11-23T17:32:51.334Z,2.97
2022-11-23T17:35:23.457Z,2.25
2022-11-23T17:37:52.127Z,2.40
2022-11-23T17:40:21.786Z,2.97
2022-11-23T17:42:51.710Z,2.20
2022-11-23T17:45:20.910Z,2.00
2022-11-23T17:47:51.294Z,2.55
2022-11-23T17:50:25.394Z,1.95
2022-11-23T17:52:53.975Z,3.15
2022-11-23T17:55:22.585Z,2.60
2022-11-23T17:57:52.379Z,3.25
2022-11-23T18:03:08.039Z,2.58
2022-11-23T18:05:40.817Z,2.92
2022-11-23T18:08:15.157Z,4.75
2022-11-23T18:10:49.480Z,83.38
2022-11-23T18:13:19.123Z,126.82
2022-11-23T18:15:51.591Z,4.85
2022-11-23T18:18:20.929Z,4.20
2022-11-23T18:23:38.256Z,2.58
2022-11-23T18:26:28.013Z,2.40
2022-11-23T18:29:54.909Z,2.47
2022-11-23T18:32:34.437Z,2.60
2022-11-23T18:47:38.865Z,2.30
2022-11-23T18:50:21.113Z,1.98
2022-11-23T18:52:50.004Z,2.90
2022-11-23T18:57:55.054Z,2.30
2022-11-23T19:00:24.051Z,2.75
2022-11-23T19:03:27.887Z,2.50
2022-11-23T19:06:08.323Z,2.63
2022-11-23T19:08:50.232Z,3.28
2022-11-23T19:11:20.161Z,2.53
2022-11-23T19:13:50.875Z,2.10
2022-11-23T19:16:25.815Z,2.50
2022-11-23T19:18:55.354Z,1.70
2022-11-23T19:21:25.736Z,1.90
2022-11-23T19:23:55.878Z,1.40
2022-11-23T19:26:25.747Z,2.13
2022-11-23T19:32:48.932Z,1.85
2022-11-23T19:35:17.239Z,1.20
2022-11-23T19:37:46.710Z,1.85
2022-11-23T19:40:17.493Z,1.05
2022-11-23T19:42:46.004Z,0.90
2022-11-23T19:45:14.859Z,1.58
2022-11-23T19:47:45.302Z,1.30
2022-11-23T19:50:14.184Z,1.15
2022-11-23T19:53:10.736Z,1.27
2022-11-23T19:55:36.730Z,1.15
2022-11-23T19:58:12.101Z,1.08
2022-11-23T20:00:45.928Z,1.00
2022-11-23T20:03:14.574Z,0.80
2022-11-23T20:05:59.379Z,1.20
2022-11-23T20:08:30.483Z,1.05
2022-11-23T20:13:43.190Z,0.90
2022-11-23T20:16:16.161Z,0.90
2022-11-23T20:18:50.693Z,0.90
2022-11-23T20:21:23.655Z,1.02
2022-11-23T20:24:04.065Z,1.10
2022-11-23T20:26:37.380Z,1.02
2022-11-23T20:29:09.836Z,1.17
2022-11-23T20:31:38.993Z,1.13
2022-11-23T20:34:11.063Z,1.30
2022-11-23T20:36:46.041Z,0.80
2022-11-23T20:39:16.087Z,0.90
2022-11-23T20:41:46.599Z,1.08
2022-11-23T20:44:14.898Z,1.00
2022-11-23T20:49:32.971Z,1.48
2022-11-23T20:52:03.271Z,1.60
2022-11-23T20:54:32.771Z,1.67
2022-11-23T20:57:01.644Z,1.20
2022-11-23T20:59:36.613Z,1.55
2022-11-23T21:02:07.823Z,1.20
2022-11-23T21:07:58.006Z,1.52
2022-11-23T21:13:59.580Z,1.38
2022-11-23T21:16:36.254Z,1.23
2022-11-23T21:19:26.433Z,0.85
2022-11-23T21:21:55.922Z,0.95
2022-11-23T21:24:28.060Z,0.90
2022-11-23T21:27:05.276Z,1.20
2022-11-23T21:29:34.443Z,0.80
2022-11-23T21:32:23.772Z,1.33
2022-11-23T21:34:59.212Z,1.10
2022-11-23T21:37:31.977Z,1.23
2022-11-23T21:40:02.402Z,1.20
2022-11-23T21:42:33.137Z,1.20
2022-11-23T21:45:03.747Z,0.88
2022-11-23T21:47:33.551Z,1.80
2022-11-23T21:50:02.428Z,1.10
2022-11-23T21:52:31.015Z,1.25
2022-11-23T21:54:59.298Z,1.25
2022-11-23T21:57:29.441Z,1.58
2022-11-23T21:59:58.103Z,1.92
2022-11-23T22:02:29.016Z,1.77
2022-11-23T22:04:59.996Z,1.38
2022-11-23T22:07:30.271Z,1.65
2022-11-23T22:12:27.160Z,1.30
2022-11-23T22:14:57.177Z,1.70
2022-11-23T22:17:25.176Z,2.30
2022-11-23T22:19:53.521Z,1.95
2022-11-23T22:22:26.622Z,1.40
2022-11-23T22:25:00.409Z,1.35
2022-11-23T22:27:29.745Z,1.77
2022-11-23T22:30:00.414Z,1.70
2022-11-23T22:32:28.703Z,1.42
2022-11-23T22:34:56.887Z,1.52
2022-11-23T22:37:25.903Z,1.42
2022-11-23T22:39:53.981Z,2.03
2022-11-23T22:44:52.184Z,1.73
2022-11-23T22:56:55.921Z,2.38
2022-11-23T22:59:25.236Z,1.58
2022-11-23T23:01:53.496Z,1.42
2022-11-23T23:04:21.623Z,1.45
2022-11-23T23:06:52.843Z,1.60
2022-11-23T23:09:22.144Z,2.05
2022-11-23T23:11:51.151Z,1.52
2022-11-23T23:14:19.209Z,1.90
2022-11-23T23:16:49.644Z,2.33
2022-11-23T23:19:43.413Z,2.00
2022-11-23T23:25:08.637Z,1.60
2022-11-23T23:27:37.132Z,2.38
2022-11-23T23:30:07.720Z,1.65
2022-11-23T23:32:36.752Z,1.60
2022-11-23T23:35:04.559Z,1.73
2022-11-23T23:37:37.033Z,1.70
2022-11-23T23:40:05.516Z,1.90
2022-11-23T23:42:35.341Z,1.90
2022-11-23T23:45:19.893Z,1.80
2022-11-23T23:50:17.776Z,1.75
2022-11-23T23:52:46.821Z,1.75
2022-11-23T23:55:15.591Z,1.80
2022-11-23T23:57:47.819Z,1.63
